Time;durP1;ratioP1;P1;durP2;ratioP2;P2;SDS_P1;SDS_P2;PMS_P1;PMS_P2;Temp;Humidity;BMP_temperature;BMP_pressure;BME280_temperature;BME280_humidity;BME280_pressure;Samples;Min_cycle;Max_cycle;Signal;HPM_P1;HPM_P2
2022/11/29 05:04:43;;;;;;;11.40;8.88;;;7.80;99.90;;;;;;5768319;23;20322;-64
2022/11/29 05:07:31;;;;;;;9.45;8.55;;;7.90;99.90;;;;;;4972593;28;20653;-67
2022/11/29 05:10:32;;;;;;;10.15;8.48;;;7.90;99.90;;;;;;4974846;28;20555;-68
2022/11/29 05:13:35;;;;;;;9.60;7.22;;;7.90;99.90;;;;;;4974365;28;20251;-67
2022/11/29 05:16:08;;;;;;;11.43;7.97;;;7.90;99.90;;;;;;4955455;29;20273;-65
2022/11/29 05:19:02;;;;;;;11.60;7.75;;;8.00;99.90;;;;;;4939185;29;20177;-65
2022/11/29 05:21:54;;;;;;;9.38;7.47;;;8.00;99.90;;;;;;4936268;29;20181;-65
2022/11/29 05:24:31;;;;;;;9.30;7.30;;;8.10;99.90;;;;;;4935636;29;20193;-65
2022/11/29 05:27:03;;;;;;;6.40;5.07;;;8.10;99.90;;;;;;4938034;29;20228;-65
2022/11/29 05:30:00;;;;;;;7.72;7.03;;;8.10;99.90;;;;;;4955603;29;20173;-66
2022/11/29 05:32:51;;;;;;;6.50;4.97;;;8.10;99.90;;;;;;4947502;29;20183;-66
2022/11/29 05:35:28;;;;;;;8.77;6.68;;;8.10;99.90;;;;;;4953974;29;20204;-64
2022/11/29 05:38:07;;;;;;;6.60;5.82;;;8.10;99.90;;;;;;4945187;29;20541;-65
2022/11/29 05:40:58;;;;;;;8.10;5.13;;;8.10;99.90;;;;;;4926235;29;20641;-66
2022/11/29 05:44:03;;;;;;;5.55;5.05;;;8.10;99.90;;;;;;4936277;29;20224;-66
2022/11/29 05:46:46;;;;;;;8.27;5.50;;;8.10;99.90;;;;;;4916731;29;20206;-66
2022/11/29 05:49:21;;;;;;;5.38;4.88;;;8.10;99.90;;;;;;4954525;29;20173;-67
2022/11/29 05:52:05;;;;;;;6.95;5.25;;;8.10;99.90;;;;;;4954784;29;20580;-65
2022/11/29 05:54:48;;;;;;;5.60;4.88;;;8.10;99.90;;;;;;4955269;28;20196;-66
2022/11/29 05:57:29;;;;;;;6.15;4.72;;;8.10;99.90;;;;;;4957699;29;20684;-66
2022/11/29 05:59:58;;;;;;;7.10;4.97;;;8.20;99.90;;;;;;4958899;29;20176;-65
2022/11/29 06:02:26;;;;;;;8.48;5.00;;;8.10;99.90;;;;;;4958883;29;20176;-66
2022/11/29 06:05:14;;;;;;;6.20;4.97;;;8.20;99.90;;;;;;4952524;29;20212;-65
2022/11/29 06:07:59;;;;;;;7.82;5.72;;;8.10;99.90;;;;;;4947300;29;20658;-64
2022/11/29 06:10:31;;;;;;;5.32;4.38;;;8.10;99.90;;;;;;4941308;29;20641;-67
2022/11/29 06:13:45;;;;;;;4.18;3.78;;;8.10;99.90;;;;;;4943734;29;20529;-65
2022/11/29 06:16:38;;;;;;;7.00;4.35;;;8.20;99.90;;;;;;4907384;29;20197;-66
2022/11/29 06:19:38;;;;;;;4.30;3.58;;;8.20;99.90;;;;;;4951418;29;20687;-65
2022/11/29 06:22:15;;;;;;;3.85;3.45;;;8.20;99.90;;;;;;4946423;29;20596;-66
2022/11/29 06:24:55;;;;;;;4.38;3.85;;;8.20;99.90;;;;;;4957314;29;20196;-66
2022/11/29 06:28:00;;;;;;;7.82;4.82;;;8.20;99.90;;;;;;4951173;29;20571;-65
2022/11/29 06:30:30;;;;;;;4.70;4.20;;;8.20;99.90;;;;;;4950663;29;20185;-66
2022/11/29 06:33:00;;;;;;;4.97;4.25;;;8.20;99.90;;;;;;4957762;29;20192;-66
2022/11/29 06:35:46;;;;;;;5.65;4.18;;;8.20;99.90;;;;;;4957506;29;20595;-67
2022/11/29 06:38:22;;;;;;;8.02;5.63;;;8.10;99.90;;;;;;4946257;29;20174;-66
2022/11/29 06:40:49;;;;;;;7.15;4.80;;;8.10;99.90;;;;;;4957035;28;20168;-66
2022/11/29 06:43:16;;;;;;;6.70;4.78;;;8.20;99.90;;;;;;4957510;29;20263;-67
2022/11/29 06:45:50;;;;;;;6.13;5.38;;;8.20;99.90;;;;;;4957308;29;20744;-65
2022/11/29 06:48:23;;;;;;;5.97;4.80;;;8.20;99.90;;;;;;4957529;29;20191;-66
2022/11/29 06:51:01;;;;;;;6.90;5.13;;;8.20;99.90;;;;;;4953097;29;20642;-65
2022/11/29 06:53:53;;;;;;;8.85;5.05;;;8.20;99.90;;;;;;4953591;29;20546;-66
2022/11/29 06:56:46;;;;;;;10.25;6.40;;;8.20;99.90;;;;;;4938549;28;20672;-67
2022/11/29 06:59:39;;;;;;;7.00;6.05;;;8.20;99.90;;;;;;4957728;29;20184;-66
2022/11/29 07:02:18;;;;;;;9.13;5.78;;;8.20;99.90;;;;;;4957290;29;20202;-66
2022/11/29 07:04:50;;;;;;;7.53;5.72;;;8.20;99.90;;;;;;4956400;28;20251;-65
2022/11/29 07:07:20;;;;;;;7.97;6.30;;;8.20;99.90;;;;;;4940878;29;20275;-66
2022/11/29 07:09:49;;;;;;;13.25;6.68;;;8.20;99.90;;;;;;4938146;29;20181;-65
2022/11/29 07:12:16;;;;;;;9.85;5.40;;;8.20;99.90;;;;;;4937704;29;20173;-65
2022/11/29 07:14:42;;;;;;;9.10;6.78;;;8.20;99.90;;;;;;4950282;29;20568;-66
2022/11/29 07:17:29;;;;;;;13.18;8.57;;;8.30;99.90;;;;;;4957341;29;20187;-64
2022/11/29 07:20:14;;;;;;;8.27;5.55;;;8.20;99.90;;;;;;4946501;28;20216;-68
2022/11/29 07:23:01;;;;;;;9.13;6.13;;;8.30;99.90;;;;;;4953723;28;20651;-65
2022/11/29 07:25:41;;;;;;;14.93;7.40;;;8.30;99.90;;;;;;4937744;29;20196;-66
2022/11/29 07:28:25;;;;;;;10.90;5.85;;;8.30;99.90;;;;;;4937918;29;20183;-67
2022/11/29 07:31:09;;;;;;;8.63;6.32;;;8.20;99.90;;;;;;4940269;29;20192;-65
2022/11/29 07:33:46;;;;;;;9.52;6.60;;;8.30;99.90;;;;;;4937480;29;20172;-65
2022/11/29 07:36:31;;;;;;;7.78;5.80;;;8.30;99.90;;;;;;4951303;29;20683;-66
2022/11/29 07:39:34;;;;;;;11.00;6.45;;;8.30;99.90;;;;;;4957042;29;20208;-66
2022/11/29 07:42:09;;;;;;;8.43;6.40;;;8.20;99.90;;;;;;4948093;29;20197;-65
2022/11/29 07:44:45;;;;;;;8.13;5.50;;;8.20;99.90;;;;;;4937439;29;20548;-66
2022/11/29 07:47:10;;;;;;;9.82;7.10;;;8.20;99.90;;;;;;4953416;29;20204;-66
2022/11/29 07:49:36;;;;;;;9.57;6.73;;;8.20;99.90;;;;;;4954618;29;20232;-66
2022/11/29 07:52:02;;;;;;;5.80;5.23;;;8.20;99.90;;;;;;4956392;29;20180;-65
2022/11/29 07:54:27;;;;;;;9.70;5.93;;;8.10;99.90;;;;;;4951695;29;20669;-65
2022/11/29 07:57:00;;;;;;;9.37;6.40;;;8.20;99.90;;;;;;4954583;29;20751;-65
2022/11/29 07:59:27;;;;;;;7.50;6.68;;;8.20;99.90;;;;;;4956281;29;20495;-65
2022/11/29 08:01:54;;;;;;;11.57;5.85;;;8.20;99.90;;;;;;4956459;29;20177;-62
2022/11/29 08:04:22;;;;;;;12.98;5.75;;;8.30;99.90;;;;;;4955313;29;20227;-63
2022/11/29 08:06:48;;;;;;;9.27;7.00;;;8.20;99.90;;;;;;4929292;29;20205;-65
2022/11/29 08:09:13;;;;;;;9.67;6.23;;;8.30;99.90;;;;;;4937147;29;20256;-64
2022/11/29 08:11:39;;;;;;;9.50;6.17;;;8.30;99.90;;;;;;4937463;29;20184;-63
2022/11/29 08:14:05;;;;;;;11.30;5.60;;;8.30;99.90;;;;;;4936624;29;20578;-66
2022/11/29 08:16:30;;;;;;;7.23;5.43;;;8.30;99.90;;;;;;4950789;28;20191;-66
2022/11/29 08:18:56;;;;;;;8.13;4.93;;;8.40;99.90;;;;;;4956391;29;20184;-66
2022/11/29 08:21:22;;;;;;;9.07;6.10;;;8.40;99.90;;;;;;4935752;29;20485;-66
2022/11/29 08:23:49;;;;;;;6.10;5.50;;;8.40;99.90;;;;;;4936482;29;20441;-65
2022/11/29 08:26:16;;;;;;;9.02;6.82;;;8.40;99.90;;;;;;4936973;29;20205;-67
2022/11/29 08:28:41;;;;;;;9.32;6.28;;;8.40;99.90;;;;;;4937269;29;20172;-67
2022/11/29 08:31:10;;;;;;;8.40;5.17;;;8.40;99.90;;;;;;4937551;29;20533;-66
2022/11/29 08:33:41;;;;;;;7.28;5.72;;;8.40;99.90;;;;;;4955650;29;20333;-66
2022/11/29 08:36:12;;;;;;;14.07;6.22;;;8.40;99.90;;;;;;4956103;29;20181;-66
2022/11/29 08:38:38;;;;;;;10.48;5.07;;;8.40;99.90;;;;;;4956047;29;20236;-67
2022/11/29 08:41:07;;;;;;;7.43;5.67;;;8.40;99.90;;;;;;4955749;29;20173;-67
2022/11/29 08:43:32;;;;;;;8.95;5.07;;;8.40;99.90;;;;;;4936702;29;20894;-64
2022/11/29 08:45:58;;;;;;;6.30;4.30;;;8.40;99.90;;;;;;4936744;29;22136;-65
2022/11/29 08:48:24;;;;;;;4.47;3.70;;;8.40;99.90;;;;;;4936648;29;20180;-64
2022/11/29 08:50:52;;;;;;;8.15;5.28;;;8.40;99.90;;;;;;4936628;29;20187;-64
2022/11/29 08:56:02;;;;;;;8.60;4.40;;;8.50;99.90;;;;;;4936974;29;20688;-65
2022/11/29 08:58:28;;;;;;;6.03;4.67;;;8.60;99.90;;;;;;4919349;29;20272;-65
2022/11/29 09:00:54;;;;;;;4.60;4.20;;;8.60;99.90;;;;;;4939974;29;20180;-65
2022/11/29 09:06:06;;;;;;;5.97;4.20;;;8.60;99.90;;;;;;4940052;29;20337;-64
2022/11/29 09:08:32;;;;;;;5.53;4.13;;;8.60;99.90;;;;;;4936314;29;20173;-65
2022/11/29 09:10:57;;;;;;;4.87;4.00;;;8.60;99.90;;;;;;4936388;29;20582;-64
2022/11/29 09:13:23;;;;;;;5.60;5.10;;;8.60;99.90;;;;;;4935902;29;20550;-64
2022/11/29 09:15:48;;;;;;;6.07;5.47;;;8.60;99.90;;;;;;4949190;29;20200;-65
2022/11/29 09:18:14;;;;;;;6.40;5.60;;;8.70;99.90;;;;;;4955311;29;20231;-65
2022/11/29 09:20:42;;;;;;;6.93;5.77;;;8.70;99.90;;;;;;4955423;29;20177;-65
2022/11/29 09:23:09;;;;;;;5.70;4.82;;;8.70;99.90;;;;;;4949330;29;20587;-65
2022/11/29 09:25:35;;;;;;;8.68;5.90;;;8.70;99.90;;;;;;4936080;29;20208;-65
2022/11/29 09:28:01;;;;;;;6.73;6.07;;;8.70;99.90;;;;;;4918400;29;20213;-69
2022/11/29 09:30:32;;;;;;;5.93;4.55;;;8.70;99.90;;;;;;4935869;29;20224;-65
2022/11/29 09:33:01;;;;;;;7.07;5.70;;;8.70;99.90;;;;;;4940551;29;20173;-64
2022/11/29 09:35:27;;;;;;;5.25;4.60;;;8.70;99.90;;;;;;4935869;29;20198;-66
2022/11/29 09:37:53;;;;;;;5.88;5.38;;;8.70;99.90;;;;;;4936255;29;20193;-66
2022/11/29 09:40:30;;;;;;;6.43;5.40;;;8.70;99.90;;;;;;4936195;29;20174;-64
2022/11/29 09:43:07;;;;;;;7.78;5.72;;;8.60;99.90;;;;;;4941795;29;20201;-64
2022/11/29 09:45:38;;;;;;;6.65;5.82;;;8.60;99.90;;;;;;4935595;29;20193;-66
2022/11/29 09:48:04;;;;;;;7.55;6.57;;;8.60;99.90;;;;;;4953336;29;20669;-66
2022/11/29 09:50:33;;;;;;;10.27;7.73;;;8.60;99.90;;;;;;4955017;29;20251;-67
2022/11/29 09:53:15;;;;;;;5.40;4.88;;;8.60;99.90;;;;;;4936711;29;20305;-66
2022/11/29 09:55:46;;;;;;;6.55;5.15;;;8.60;99.90;;;;;;4935609;29;20201;-67
2022/11/29 09:58:16;;;;;;;7.63;6.22;;;8.70;99.90;;;;;;4937725;29;20536;-66
2022/11/29 10:00:48;;;;;;;8.93;6.28;;;8.70;99.90;;;;;;4936053;29;20765;-67
2022/11/29 10:03:22;;;;;;;6.60;4.53;;;8.70;99.90;;;;;;4935351;29;20182;-67
2022/11/29 10:05:52;;;;;;;5.80;5.32;;;8.70;99.90;;;;;;4935535;29;20182;-66
2022/11/29 10:08:37;;;;;;;4.28;3.88;;;8.70;99.90;;;;;;4941586;29;20258;-67
2022/11/29 10:11:21;;;;;;;4.82;4.38;;;8.70;99.90;;;;;;4935687;29;20166;-66
2022/11/29 10:13:56;;;;;;;6.78;5.47;;;8.80;99.90;;;;;;4935217;29;20245;-66
2022/11/29 10:16:49;;;;;;;6.18;5.70;;;8.80;99.90;;;;;;4935901;29;20173;-67
2022/11/29 10:19:26;;;;;;;5.68;5.18;;;8.90;99.90;;;;;;4948916;29;20222;-67
2022/11/29 10:22:03;;;;;;;5.28;4.78;;;9.00;99.90;;;;;;4954942;29;20177;-66
2022/11/29 10:24:31;;;;;;;6.57;5.70;;;9.00;99.90;;;;;;4954233;29;20673;-66
2022/11/29 10:26:57;;;;;;;5.95;5.20;;;8.90;99.90;;;;;;4954629;29;20200;-66
2022/11/29 10:29:23;;;;;;;6.20;5.50;;;8.90;99.90;;;;;;4954292;29;20173;-66
2022/11/29 10:31:49;;;;;;;5.93;5.37;;;8.90;99.90;;;;;;4935559;29;20421;-66
2022/11/29 10:34:24;;;;;;;5.77;4.47;;;9.00;99.90;;;;;;4935153;29;20182;-68
2022/11/29 10:37:00;;;;;;;5.88;5.38;;;9.00;99.90;;;;;;4918613;29;20184;-65
2022/11/29 10:39:46;;;;;;;4.90;4.40;;;9.00;99.90;;;;;;4935939;29;20170;-67
2022/11/29 10:45:29;;;;;;;5.22;4.75;;;9.00;99.90;;;;;;4955051;29;20219;-67
2022/11/29 10:48:16;;;;;;;6.25;4.28;;;9.00;99.90;;;;;;4939602;29;20205;-65
2022/11/29 10:50:44;;;;;;;5.82;5.25;;;9.00;99.90;;;;;;4938931;29;20185;-68
2022/11/29 10:53:13;;;;;;;4.63;4.32;;;9.10;99.90;;;;;;4950634;29;20173;-66
2022/11/29 10:55:52;;;;;;;4.88;4.47;;;9.10;99.90;;;;;;4957806;29;20192;-67
2022/11/29 10:58:24;;;;;;;6.00;5.47;;;9.10;99.90;;;;;;4939540;29;20173;-67
2022/11/29 11:00:54;;;;;;;5.80;5.03;;;9.10;99.90;;;;;;4921445;29;20177;-67
2022/11/29 11:03:23;;;;;;;5.20;4.70;;;9.10;99.90;;;;;;4938110;29;20177;-66
2022/11/29 11:06:09;;;;;;;5.40;4.90;;;9.00;99.90;;;;;;4938382;29;20234;-66
2022/11/29 11:08:37;;;;;;;5.80;5.18;;;9.10;99.90;;;;;;4954939;29;20601;-66
2022/11/29 11:11:06;;;;;;;6.07;4.78;;;9.00;99.90;;;;;;4957652;29;20495;-65
2022/11/29 11:13:33;;;;;;;6.63;5.07;;;9.00;99.90;;;;;;4957086;29;20169;-66
2022/11/29 11:16:25;;;;;;;4.60;4.18;;;9.00;99.90;;;;;;4957487;29;20178;-67
2022/11/29 11:18:51;;;;;;;5.70;5.20;;;9.00;99.90;;;;;;4957250;29;20176;-66
2022/11/29 11:21:19;;;;;;;5.70;5.30;;;9.00;99.90;;;;;;4956435;29;20173;-67
2022/11/29 11:23:57;;;;;;;5.45;4.88;;;9.00;99.90;;;;;;4957099;29;20468;-67
2022/11/29 11:26:24;;;;;;;6.55;5.43;;;9.00;99.90;;;;;;4922294;29;20612;-67
2022/11/29 11:29:01;;;;;;;6.07;4.47;;;9.00;99.90;;;;;;4938193;29;20542;-67
2022/11/29 11:31:39;;;;;;;7.93;6.97;;;9.00;99.90;;;;;;4938345;29;20170;-66
2022/11/29 11:34:24;;;;;;;6.30;5.70;;;8.90;99.90;;;;;;4946424;29;20197;-69
2022/11/29 11:36:50;;;;;;;6.70;5.35;;;9.00;99.90;;;;;;4938072;29;20209;-66
2022/11/29 11:39:21;;;;;;;8.00;5.93;;;8.90;99.90;;;;;;4938129;29;20578;-67
2022/11/29 11:44:37;;;;;;;6.00;5.28;;;8.90;99.90;;;;;;4954704;29;20227;-68
2022/11/29 11:47:06;;;;;;;7.40;5.53;;;8.90;99.90;;;;;;4956784;29;20550;-65
2022/11/29 11:49:47;;;;;;;8.90;6.72;;;8.90;99.90;;;;;;4956573;29;20223;-64
2022/11/29 11:52:29;;;;;;;7.47;6.25;;;8.90;99.90;;;;;;4946779;28;20585;-68
2022/11/29 11:55:00;;;;;;;6.20;5.18;;;8.90;99.90;;;;;;4940508;29;20221;-67
2022/11/29 11:57:26;;;;;;;5.78;4.97;;;8.90;99.90;;;;;;4938780;29;20185;-67
2022/11/29 11:59:54;;;;;;;6.57;5.68;;;9.00;99.90;;;;;;4955549;29;20570;-68
2022/11/29 12:02:38;;;;;;;6.30;5.30;;;8.90;99.90;;;;;;4952469;29;20223;-66
2022/11/29 12:05:12;;;;;;;7.05;5.35;;;9.00;99.90;;;;;;4937856;29;20272;-67
2022/11/29 12:07:49;;;;;;;6.80;4.85;;;9.00;99.90;;;;;;4948198;29;20239;-68
2022/11/29 12:10:29;;;;;;;5.93;5.43;;;9.00;99.90;;;;;;4929055;29;20629;-66
2022/11/29 12:12:57;;;;;;;6.60;5.00;;;9.00;99.90;;;;;;4951430;29;20268;-67
2022/11/29 12:15:37;;;;;;;7.20;5.78;;;9.00;99.90;;;;;;4937094;29;20228;-68
2022/11/29 12:18:11;;;;;;;8.00;6.15;;;9.00;99.90;;;;;;4937265;29;20260;-66
2022/11/29 12:20:51;;;;;;;7.40;6.70;;;9.10;99.90;;;;;;4946320;29;20200;-67
2022/11/29 12:24:08;;;;;;;7.07;6.32;;;9.10;99.90;;;;;;4941295;29;20197;-66
2022/11/29 12:26:39;;;;;;;7.57;5.68;;;9.10;99.90;;;;;;4909422;29;20248;-65
2022/11/29 12:29:17;;;;;;;5.60;5.10;;;9.10;99.90;;;;;;4937064;29;20507;-65
2022/11/29 12:32:17;;;;;;;5.60;5.00;;;9.10;99.90;;;;;;4940275;29;20177;-66
2022/11/29 12:34:56;;;;;;;5.32;4.55;;;9.10;99.90;;;;;;4943835;29;20206;-66
2022/11/29 12:37:50;;;;;;;5.88;4.65;;;9.10;99.90;;;;;;4948283;29;20173;-63
2022/11/29 12:40:19;;;;;;;4.95;4.45;;;9.10;99.90;;;;;;4951245;29;20255;-64
2022/11/29 12:43:01;;;;;;;5.72;5.22;;;9.10;99.90;;;;;;4955049;29;20177;-63
2022/11/29 12:46:04;;;;;;;6.72;4.78;;;9.10;99.90;;;;;;4955996;29;20605;-65
2022/11/29 12:49:11;;;;;;;4.28;3.88;;;9.10;99.90;;;;;;4955738;29;20181;-67
2022/11/29 12:51:45;;;;;;;5.10;4.55;;;9.20;99.90;;;;;;4912696;29;20196;-67
2022/11/29 12:54:14;;;;;;;8.00;5.20;;;9.30;99.90;;;;;;4953837;29;20203;-67
2022/11/29 12:56:56;;;;;;;6.55;5.85;;;9.30;99.90;;;;;;4955631;29;20203;-65
2022/11/29 12:59:56;;;;;;;6.20;4.32;;;9.30;99.90;;;;;;4955748;29;20204;-66
2022/11/29 13:02:40;;;;;;;7.00;4.60;;;9.40;99.90;;;;;;4955520;28;20188;-65
2022/11/29 13:05:32;;;;;;;4.90;4.50;;;9.30;99.90;;;;;;4954757;29;20675;-66
2022/11/29 13:08:32;;;;;;;5.22;4.72;;;9.30;99.90;;;;;;4955283;29;20295;-69
2022/11/29 13:11:21;;;;;;;5.50;4.95;;;9.30;99.90;;;;;;4955493;29;20200;-65
2022/11/29 13:13:49;;;;;;;5.35;4.85;;;9.20;99.90;;;;;;4955168;29;20204;-67
2022/11/29 13:16:48;;;;;;;6.13;5.18;;;9.20;99.90;;;;;;4955602;29;20177;-67
2022/11/29 13:19:19;;;;;;;4.90;4.40;;;9.20;99.90;;;;;;4954597;29;20177;-66
2022/11/29 13:22:05;;;;;;;5.28;4.75;;;9.10;99.90;;;;;;4954596;29;20181;-66
2022/11/29 13:24:36;;;;;;;4.88;4.13;;;9.10;99.90;;;;;;4955101;29;20185;-65
2022/11/29 13:27:06;;;;;;;5.15;4.65;;;9.10;99.90;;;;;;4955431;29;20283;-66
2022/11/29 13:29:34;;;;;;;5.85;4.97;;;9.10;99.90;;;;;;4955244;29;20169;-67
2022/11/29 13:32:03;;;;;;;4.85;4.35;;;9.10;99.90;;;;;;4955370;29;20181;-66
2022/11/29 13:34:40;;;;;;;7.25;4.95;;;9.00;99.90;;;;;;4937882;29;20184;-67
2022/11/29 13:37:19;;;;;;;8.63;5.22;;;9.00;99.90;;;;;;4953429;29;20169;-66
2022/11/29 13:39:59;;;;;;;5.28;4.78;;;8.90;99.90;;;;;;4953302;29;20180;-68
2022/11/29 13:42:49;;;;;;;5.45;4.50;;;8.90;99.90;;;;;;4953167;29;20191;-66
2022/11/29 13:45:19;;;;;;;6.90;5.68;;;9.00;99.90;;;;;;4953221;29;20195;-67
2022/11/29 13:47:53;;;;;;;5.40;4.75;;;9.00;99.90;;;;;;4954033;29;20262;-67
2022/11/29 13:50:41;;;;;;;5.88;5.05;;;8.90;99.90;;;;;;4937171;29;20177;-65
2022/11/29 13:53:41;;;;;;;7.18;4.90;;;8.80;99.90;;;;;;4954769;29;20164;-66
2022/11/29 13:56:06;;;;;;;6.05;5.55;;;8.80;99.90;;;;;;4913429;29;20192;-66
2022/11/29 13:58:38;;;;;;;5.60;5.10;;;8.80;99.90;;;;;;4955042;29;20216;-69
2022/11/29 14:01:10;;;;;;;4.97;4.15;;;8.70;99.90;;;;;;4954767;29;20169;-66
2022/11/29 14:03:46;;;;;;;6.20;5.32;;;8.70;99.90;;;;;;4954644;29;20220;-66
2022/11/29 14:06:19;;;;;;;7.80;5.13;;;8.70;99.90;;;;;;4954788;29;20292;-67
2022/11/29 14:08:51;;;;;;;6.65;4.50;;;8.70;99.90;;;;;;4954983;29;20169;-66
2022/11/29 14:11:25;;;;;;;6.18;5.20;;;8.70;99.90;;;;;;4954984;29;20180;-65
2022/11/29 14:14:03;;;;;;;7.90;5.28;;;8.60;99.90;;;;;;4954390;29;20605;-65
2022/11/29 14:16:47;;;;;;;5.65;4.22;;;8.60;99.90;;;;;;4958788;29;20181;-65
2022/11/29 14:19:24;;;;;;;4.88;4.35;;;8.50;99.90;;;;;;4942148;29;20168;-66
2022/11/29 14:22:01;;;;;;;4.20;3.80;;;8.50;99.90;;;;;;4958615;29;20188;-65
2022/11/29 14:24:35;;;;;;;5.47;3.90;;;8.40;99.90;;;;;;4958063;29;20191;-68
2022/11/29 14:27:13;;;;;;;5.97;5.53;;;8.40;99.90;;;;;;4958343;29;20199;-68
2022/11/29 14:32:57;;;;;;;4.88;4.43;;;8.40;99.90;;;;;;4958337;29;20169;-69
2022/11/29 14:35:35;;;;;;;4.45;4.05;;;8.40;99.90;;;;;;4934081;29;20561;-66
2022/11/29 14:38:14;;;;;;;6.40;5.80;;;8.40;99.90;;;;;;4950069;29;20236;-68
2022/11/29 14:40:59;;;;;;;4.70;4.25;;;8.30;99.90;;;;;;4938789;29;20712;-69
2022/11/29 14:43:32;;;;;;;4.93;4.47;;;8.30;99.90;;;;;;4939556;29;20549;-69
2022/11/29 14:46:23;;;;;;;8.43;4.35;;;8.30;99.90;;;;;;4939714;29;20528;-69
2022/11/29 14:48:55;;;;;;;5.70;5.20;;;8.20;99.90;;;;;;4944305;29;20212;-68
2022/11/29 14:51:26;;;;;;;4.78;3.78;;;8.30;99.90;;;;;;4957640;29;20176;-67
2022/11/29 14:54:14;;;;;;;5.72;5.07;;;8.30;99.90;;;;;;4951825;29;20248;-68
2022/11/29 14:56:41;;;;;;;4.57;4.20;;;8.30;99.90;;;;;;4938745;29;20268;-69
2022/11/29 15:00:01;;;;;;;5.97;4.82;;;8.30;99.90;;;;;;4951617;29;20219;-69
2022/11/29 15:02:36;;;;;;;4.72;4.32;;;8.30;99.90;;;;;;4906492;29;20182;-70
2022/11/29 15:05:17;;;;;;;5.18;4.18;;;8.30;99.90;;;;;;4948988;29;20227;-68
2022/11/29 15:07:50;;;;;;;6.25;4.20;;;8.30;99.90;;;;;;4957705;29;20219;-69
2022/11/29 15:10:28;;;;;;;5.95;4.28;;;8.30;99.90;;;;;;4956788;29;20217;-67
2022/11/29 15:12:55;;;;;;;6.38;4.93;;;8.30;99.90;;;;;;4957280;29;20168;-70
2022/11/29 15:15:59;;;;;;;5.28;3.90;;;8.20;99.90;;;;;;4927898;29;20251;-69
2022/11/29 15:18:27;;;;;;;4.90;4.35;;;8.20;99.90;;;;;;4898756;29;20234;-69
2022/11/29 15:21:11;;;;;;;6.95;6.25;;;8.30;99.90;;;;;;4930548;29;20177;-69
2022/11/29 15:23:41;;;;;;;5.38;4.35;;;8.20;99.90;;;;;;4937866;29;20224;-69
2022/11/29 15:26:18;;;;;;;5.95;5.07;;;8.20;99.90;;;;;;4937001;29;20178;-68
2022/11/29 15:28:44;;;;;;;5.20;4.70;;;8.20;99.90;;;;;;4937127;29;20186;-69
2022/11/29 15:31:17;;;;;;;6.03;4.93;;;8.20;99.90;;;;;;4937925;29;20216;-71
2022/11/29 15:33:45;;;;;;;5.18;4.40;;;8.20;99.90;;;;;;4942261;29;20436;-70
2022/11/29 15:36:18;;;;;;;7.78;4.70;;;8.10;99.90;;;;;;4957122;29;20173;-70
2022/11/29 15:38:47;;;;;;;5.80;5.20;;;8.10;99.90;;;;;;4956953;29;20176;-70
2022/11/29 15:41:20;;;;;;;5.20;4.60;;;8.10;99.90;;;;;;4937850;29;20727;-69
2022/11/29 15:43:52;;;;;;;5.32;4.82;;;8.10;99.90;;;;;;4956615;29;20196;-70
2022/11/29 15:46:28;;;;;;;6.20;5.07;;;8.10;99.90;;;;;;4956968;29;20195;-70
2022/11/29 15:49:13;;;;;;;9.30;5.00;;;8.10;99.90;;;;;;4956908;29;20521;-70
2022/11/29 15:51:40;;;;;;;5.80;4.78;;;8.10;99.90;;;;;;4937743;29;20181;-70
2022/11/29 15:54:29;;;;;;;5.32;4.53;;;8.10;99.90;;;;;;4937049;29;20247;-70
2022/11/29 15:57:09;;;;;;;6.90;5.35;;;8.10;99.90;;;;;;4921287;29;20185;-70
2022/11/29 15:59:57;;;;;;;7.82;5.55;;;8.00;99.90;;;;;;4937632;29;20207;-69
2022/11/29 16:02:26;;;;;;;5.15;4.75;;;8.00;99.90;;;;;;4947165;29;20232;-70
2022/11/29 16:04:59;;;;;;;6.85;4.85;;;8.10;99.90;;;;;;4945396;29;20236;-70
2022/11/29 16:07:30;;;;;;;7.35;5.10;;;8.00;99.90;;;;;;4944308;29;20640;-69
2022/11/29 16:10:14;;;;;;;6.63;5.38;;;8.00;99.90;;;;;;4937555;29;20162;-70
2022/11/29 16:12:54;;;;;;;6.00;4.47;;;8.00;99.90;;;;;;4920047;29;20181;-70
2022/11/29 16:15:29;;;;;;;4.45;4.05;;;8.00;99.90;;;;;;4933709;29;20675;-70
2022/11/29 16:17:54;;;;;;;7.70;6.40;;;8.00;99.90;;;;;;4956636;29;20223;-70
2022/11/29 16:20:23;;;;;;;6.70;6.00;;;8.00;99.90;;;;;;4956388;29;20172;-69
2022/11/29 16:23:10;;;;;;;6.10;5.40;;;7.90;99.90;;;;;;4956003;29;20172;-69
2022/11/29 16:26:03;;;;;;;4.78;4.05;;;7.90;99.90;;;;;;4935426;28;20287;-69
2022/11/29 16:28:50;;;;;;;7.05;5.82;;;7.90;99.90;;;;;;4973096;28;20540;-70
2022/11/29 16:31:29;;;;;;;8.20;5.15;;;7.80;99.90;;;;;;4956213;29;20176;-69
2022/11/29 16:33:54;;;;;;;6.43;5.80;;;7.80;99.90;;;;;;4955709;29;20192;-70
2022/11/29 16:36:28;;;;;;;6.43;5.00;;;7.80;99.90;;;;;;4955995;29;20521;-70
2022/11/29 16:39:03;;;;;;;7.25;5.07;;;7.90;99.90;;;;;;4955996;28;20173;-71
2022/11/29 16:41:36;;;;;;;22.98;16.23;;;7.90;99.90;;;;;;4955708;29;20617;-71
2022/11/29 16:44:04;;;;;;;8.25;6.07;;;7.80;99.90;;;;;;4955432;29;20196;-69
2022/11/29 16:46:33;;;;;;;6.35;5.35;;;7.80;99.90;;;;;;4955927;29;20193;-68
2022/11/29 16:49:02;;;;;;;7.60;5.43;;;7.80;99.90;;;;;;4955768;29;20196;-68
2022/11/29 16:51:31;;;;;;;5.60;5.03;;;7.80;99.90;;;;;;4938377;29;20169;-68
2022/11/29 16:54:19;;;;;;;7.70;6.25;;;7.80;99.90;;;;;;4955234;29;20188;-66
2022/11/29 16:56:45;;;;;;;7.32;5.00;;;7.90;99.90;;;;;;4955772;29;20196;-66
2022/11/29 16:59:11;;;;;;;5.83;5.00;;;7.90;99.90;;;;;;4938402;29;20204;-66
2022/11/29 17:01:38;;;;;;;7.07;6.00;;;7.90;99.90;;;;;;4955694;29;20177;-66
2022/11/29 17:04:04;;;;;;;7.60;5.90;;;7.90;99.90;;;;;;4955126;29;20192;-67
2022/11/29 17:06:30;;;;;;;7.25;6.13;;;7.90;99.90;;;;;;4938152;29;20207;-67
2022/11/29 17:08:57;;;;;;;5.80;5.22;;;7.90;99.90;;;;;;4955364;29;20490;-70
2022/11/29 17:11:23;;;;;;;11.27;7.45;;;7.90;99.90;;;;;;4955520;29;20169;-70
2022/11/29 17:13:49;;;;;;;8.60;5.80;;;7.80;99.90;;;;;;4954666;29;20203;-67
2022/11/29 17:16:18;;;;;;;13.60;6.28;;;7.80;99.90;;;;;;4955239;29;20176;-67
2022/11/29 17:18:44;;;;;;;7.78;6.65;;;7.80;99.90;;;;;;4955242;29;20165;-68
2022/11/29 17:21:28;;;;;;;8.23;6.73;;;7.80;99.90;;;;;;4938000;29;20172;-68
2022/11/29 17:23:53;;;;;;;11.88;7.28;;;7.70;99.90;;;;;;4954677;29;20190;-68
2022/11/29 17:26:20;;;;;;;16.07;6.50;;;7.70;99.90;;;;;;4955158;29;20212;-69
2022/11/29 17:28:49;;;;;;;8.40;6.22;;;7.70;99.90;;;;;;4955054;29;20585;-67
2022/11/29 17:31:20;;;;;;;7.38;6.25;;;7.70;99.90;;;;;;4953492;29;20578;-68
2022/11/29 17:33:46;;;;;;;7.32;6.28;;;7.70;99.90;;;;;;4952991;29;20180;-68
2022/11/29 17:36:20;;;;;;;8.27;6.30;;;7.70;99.90;;;;;;4953488;29;20456;-68
2022/11/29 17:38:49;;;;;;;5.97;5.38;;;7.70;99.90;;;;;;4953662;29;20175;-67
2022/11/29 17:41:21;;;;;;;6.70;5.80;;;7.70;99.90;;;;;;4953508;29;20180;-69
2022/11/29 17:43:47;;;;;;;6.63;5.88;;;7.70;99.90;;;;;;4953960;29;20200;-68
2022/11/29 17:46:22;;;;;;;7.82;6.82;;;7.70;99.90;;;;;;4954128;29;20260;-67
2022/11/29 17:48:48;;;;;;;6.57;5.97;;;7.70;99.90;;;;;;4953554;28;20238;-66
2022/11/29 17:51:16;;;;;;;10.40;7.22;;;7.60;99.90;;;;;;4956981;29;20183;-68
2022/11/29 17:53:42;;;;;;;10.32;7.70;;;7.60;99.90;;;;;;4957284;29;20279;-68
2022/11/29 17:56:10;;;;;;;6.30;5.67;;;7.60;99.90;;;;;;4952433;29;20565;-66
2022/11/29 17:58:37;;;;;;;9.48;7.15;;;7.50;99.90;;;;;;4956343;29;20430;-67
2022/11/29 18:01:14;;;;;;;9.88;6.50;;;7.60;99.90;;;;;;4956173;29;20263;-70
2022/11/29 18:03:42;;;;;;;9.18;6.47;;;7.60;99.90;;;;;;4957004;29;20534;-68
2022/11/29 18:06:10;;;;;;;7.22;6.38;;;7.50;99.90;;;;;;4955354;29;20185;-66
2022/11/29 18:08:38;;;;;;;8.43;6.72;;;7.60;99.90;;;;;;4958194;29;20177;-67
2022/11/29 18:11:09;;;;;;;11.75;7.45;;;7.60;99.90;;;;;;4942761;29;20181;-72
2022/11/29 18:13:35;;;;;;;10.52;6.38;;;7.60;99.90;;;;;;4938817;29;20593;-67
2022/11/29 18:16:06;;;;;;;8.40;6.80;;;7.60;99.90;;;;;;4940049;29;20201;-68
2022/11/29 18:18:33;;;;;;;8.10;6.68;;;7.60;99.90;;;;;;4939287;29;20178;-69
2022/11/29 18:20:59;;;;;;;10.38;8.05;;;7.60;99.90;;;;;;4935435;29;20235;-68
2022/11/29 18:23:28;;;;;;;9.95;6.80;;;7.60;99.90;;;;;;4956482;29;20180;-68
2022/11/29 18:25:59;;;;;;;9.45;7.38;;;7.60;99.90;;;;;;4956068;29;20241;-67
2022/11/29 18:28:26;;;;;;;8.98;7.28;;;7.60;99.90;;;;;;4956727;29;20221;-67
2022/11/29 18:30:52;;;;;;;12.52;7.50;;;7.60;99.90;;;;;;4955237;29;20176;-68
2022/11/29 18:33:21;;;;;;;10.33;8.00;;;7.60;99.90;;;;;;4939109;29;20169;-66
2022/11/29 18:35:47;;;;;;;12.15;8.00;;;7.60;99.90;;;;;;4956059;29;20169;-65
2022/11/29 18:38:13;;;;;;;14.87;11.03;;;7.60;99.90;;;;;;4953807;29;20668;-68
2022/11/29 18:40:40;;;;;;;14.17;10.10;;;7.50;99.90;;;;;;4956739;29;20409;-68
2022/11/29 18:43:05;;;;;;;15.20;8.82;;;7.60;99.90;;;;;;4956528;29;20641;-66
2022/11/29 18:45:35;;;;;;;10.20;7.60;;;7.60;99.90;;;;;;4956540;29;20215;-66
2022/11/29 18:48:01;;;;;;;10.65;8.23;;;7.60;99.90;;;;;;4955841;29;20209;-68
2022/11/29 18:50:27;;;;;;;14.00;9.03;;;7.60;99.90;;;;;;4956736;29;20165;-67
2022/11/29 18:52:54;;;;;;;11.07;7.60;;;7.60;99.90;;;;;;4955375;29;20226;-66
2022/11/29 18:55:20;;;;;;;12.50;8.18;;;7.70;99.90;;;;;;4956470;29;20184;-69